Time;durP1;ratioP1;P1;durP2;ratioP2;P2;SDS_P1;SDS_P2;PMS_P1;PMS_P2;Temp;Humidity;BMP_temperature;BMP_pressure;BME280_temperature;BME280_humidity;BME280_pressure;Samples;Min_cycle;Max_cycle;Signal;HPM_P1;HPM_P2
2024/03/18 00:01:51;;;;;;;4.93;3.80;;;;;;;;;;6052001;23;20171;-79
2024/03/18 00:04:17;;;;;;;4.23;3.50;;;;;;;;;;6100015;23;20211;-81
2024/03/18 00:06:43;;;;;;;5.60;3.70;;;;;;;;;;6076157;23;20198;-82
2024/03/18 00:09:09;;;;;;;4.30;3.57;;;;;;;;;;6051842;23;20171;-81
2024/03/18 00:11:34;;;;;;;4.63;3.40;;;;;;;;;;6075775;23;20255;-79
2024/03/18 00:14:00;;;;;;;4.03;3.60;;;;;;;;;;6075799;23;20176;-80
2024/03/18 00:16:26;;;;;;;5.30;3.70;;;;;;;;;;6100310;23;20203;-79
2024/03/18 00:18:52;;;;;;;4.37;3.53;;;;;;;;;;6076256;23;20187;-80
2024/03/18 00:21:18;;;;;;;5.57;3.33;;;;;;;;;;6052341;23;20163;-80
2024/03/18 00:23:45;;;;;;;5.80;3.73;;;;;;;;;;6100656;23;20692;-79
2024/03/18 00:26:11;;;;;;;5.40;3.90;;;;;;;;;;6076298;23;20174;-80
2024/03/18 00:28:37;;;;;;;4.67;3.63;;;;;;;;;;6075922;23;20163;-80
2024/03/18 00:31:03;;;;;;;5.93;3.50;;;;;;;;;;6095076;23;20235;-80
2024/03/18 00:33:29;;;;;;;5.10;3.57;;;;;;;;;;6119357;23;20196;-78
2024/03/18 00:35:56;;;;;;;4.63;3.57;;;;;;;;;;6047080;23;20631;-80
2024/03/18 00:38:22;;;;;;;6.43;3.37;;;;;;;;;;6094990;23;20182;-79
2024/03/18 00:41:44;;;;;;;5.50;3.90;;;;;;;;;;6094844;23;20275;-81
2024/03/18 00:43:37;;;;;;;4.00;3.60;;;;;;;;;;6071315;23;20169;-79
2024/03/18 00:46:03;;;;;;;3.93;3.07;;;;;;;;;;6047356;23;20172;-79
2024/03/18 00:48:30;;;;;;;3.67;3.07;;;;;;;;;;6071640;23;20637;-79
2024/03/18 00:50:57;;;;;;;5.20;3.33;;;;;;;;;;6071146;23;20616;-80
2024/03/18 00:53:22;;;;;;;4.60;3.40;;;;;;;;;;6095344;23;20174;-79
2024/03/18 00:55:49;;;;;;;3.73;3.27;;;;;;;;;;6047313;23;20172;-80
2024/03/18 00:58:15;;;;;;;4.17;3.60;;;;;;;;;;6119351;23;20192;-79
2024/03/18 01:00:41;;;;;;;4.50;3.23;;;;;;;;;;6120104;23;20262;-82
2024/03/18 01:03:07;;;;;;;6.03;3.50;;;;;;;;;;6094994;23;20259;-80
2024/03/18 01:05:34;;;;;;;4.70;3.57;;;;;;;;;;6071320;23;20230;-80
2024/03/18 01:08:01;;;;;;;4.83;3.20;;;;;;;;;;6095393;23;20164;-79
2024/03/18 01:10:27;;;;;;;4.07;3.30;;;;;;;;;;6046928;23;20180;-80
2024/03/18 01:12:55;;;;;;;4.83;3.33;;;;;;;;;;6095060;23;20161;-79
2024/03/18 01:15:21;;;;;;;4.43;3.20;;;;;;;;;;6071274;23;20197;-81
2024/03/18 01:17:47;;;;;;;5.80;3.57;;;;;;;;;;6047454;23;20160;-82
2024/03/18 01:20:16;;;;;;;4.07;3.67;;;;;;;;;;6095167;23;20221;-79
2024/03/18 01:22:42;;;;;;;5.10;3.20;;;;;;;;;;6071324;23;20172;-80
2024/03/18 01:25:14;;;;;;;4.37;3.43;;;;;;;;;;6048387;23;20169;-83
2024/03/18 01:27:41;;;;;;;5.30;3.00;;;;;;;;;;6119319;23;20176;-79
2024/03/18 01:30:11;;;;;;;3.57;3.23;;;;;;;;;;6047992;23;20251;-79
2024/03/18 01:32:40;;;;;;;3.30;3.00;;;;;;;;;;6052123;23;20254;-82
2024/03/18 01:35:13;;;;;;;5.80;3.40;;;;;;;;;;6051404;23;20202;-80
2024/03/18 01:37:39;;;;;;;5.17;3.97;;;;;;;;;;6076059;23;20275;-79
2024/03/18 01:40:10;;;;;;;6.00;3.60;;;;;;;;;;6099796;23;20238;-80
2024/03/18 01:42:37;;;;;;;5.07;3.63;;;;;;;;;;6075865;23;20171;-80
2024/03/18 01:45:03;;;;;;;4.43;3.90;;;;;;;;;;6076128;23;20172;-79
2024/03/18 01:47:29;;;;;;;4.40;3.73;;;;;;;;;;6099750;23;20178;-79
2024/03/18 01:49:56;;;;;;;4.70;3.40;;;;;;;;;;6052292;23;20210;-81
2024/03/18 01:52:22;;;;;;;4.10;3.50;;;;;;;;;;6100261;23;20250;-79
2024/03/18 01:54:48;;;;;;;4.53;3.50;;;;;;;;;;6100157;23;20497;-79
2024/03/18 01:57:14;;;;;;;4.53;3.57;;;;;;;;;;6099920;23;20682;-79
2024/03/18 01:59:41;;;;;;;3.90;3.50;;;;;;;;;;6099768;23;20188;-80
2024/03/18 02:02:07;;;;;;;3.57;3.27;;;;;;;;;;6052206;23;20163;-79
2024/03/18 02:04:33;;;;;;;5.27;3.53;;;;;;;;;;6076120;23;20173;-80
2024/03/18 02:06:59;;;;;;;4.13;3.63;;;;;;;;;;6075760;23;20170;-80
2024/03/18 02:09:25;;;;;;;3.87;3.47;;;;;;;;;;6099692;23;20479;-79
2024/03/18 02:11:51;;;;;;;5.57;3.37;;;;;;;;;;6099817;23;20167;-80
2024/03/18 02:14:17;;;;;;;5.00;3.70;;;;;;;;;;6076266;23;20187;-80
2024/03/18 02:16:43;;;;;;;3.43;3.13;;;;;;;;;;6075858;23;20164;-80
2024/03/18 02:19:09;;;;;;;5.47;3.70;;;;;;;;;;6075488;23;20210;-80
2024/03/18 02:21:35;;;;;;;4.13;3.20;;;;;;;;;;6051513;23;20185;-80
2024/03/18 02:24:03;;;;;;;3.80;3.37;;;;;;;;;;6075605;23;20172;-80
2024/03/18 02:26:32;;;;;;;5.00;3.80;;;;;;;;;;6051814;23;20171;-79
2024/03/18 02:28:58;;;;;;;4.63;3.57;;;;;;;;;;6076221;23;20188;-79
2024/03/18 02:31:24;;;;;;;5.43;3.97;;;;;;;;;;6094605;23;20206;-80
2024/03/18 02:33:50;;;;;;;5.47;3.43;;;;;;;;;;6070832;23;20197;-80
2024/03/18 02:36:17;;;;;;;4.03;3.57;;;;;;;;;;6047486;23;20171;-81
2024/03/18 02:38:43;;;;;;;5.30;3.47;;;;;;;;;;6070821;23;20227;-81
2024/03/18 02:41:09;;;;;;;3.97;3.37;;;;;;;;;;6023752;23;20176;-79
2024/03/18 02:43:35;;;;;;;5.07;3.53;;;;;;;;;;6070973;23;20172;-79
2024/03/18 02:46:04;;;;;;;3.80;3.23;;;;;;;;;;6046206;23;20639;-81
2024/03/18 02:48:30;;;;;;;3.90;3.40;;;;;;;;;;6070353;23;20203;-79
2024/03/18 02:50:56;;;;;;;4.70;3.87;;;;;;;;;;6070904;23;20172;-78
2024/03/18 02:53:22;;;;;;;3.97;3.50;;;;;;;;;;6047712;23;20666;-80
2024/03/18 02:55:48;;;;;;;4.63;3.93;;;;;;;;;;6070915;23;20166;-80
2024/03/18 02:58:14;;;;;;;5.87;4.10;;;;;;;;;;6046717;23;20227;-79
2024/03/18 03:00:40;;;;;;;4.93;3.97;;;;;;;;;;6070438;23;20184;-80
2024/03/18 03:03:06;;;;;;;4.53;3.97;;;;;;;;;;6047032;23;20168;-80
2024/03/18 03:05:35;;;;;;;4.43;3.80;;;;;;;;;;6070484;23;20176;-80
2024/03/18 03:08:02;;;;;;;4.17;3.63;;;;;;;;;;6070817;23;20165;-83
2024/03/18 03:10:27;;;;;;;4.30;3.90;;;;;;;;;;6070972;23;20176;-81
2024/03/18 03:12:53;;;;;;;4.07;3.67;;;;;;;;;;6071027;23;20634;-81
2024/03/18 03:15:20;;;;;;;4.67;4.07;;;;;;;;;;6069975;23;20168;-80
2024/03/18 03:17:45;;;;;;;5.50;3.90;;;;;;;;;;6071004;23;20179;-79
2024/03/18 03:20:18;;;;;;;5.43;4.23;;;;;;;;;;6047298;23;20637;-80
2024/03/18 03:22:44;;;;;;;5.43;4.00;;;;;;;;;;6070762;23;20175;-79
2024/03/18 03:25:10;;;;;;;5.83;4.40;;;;;;;;;;6070804;23;20222;-80
2024/03/18 03:27:36;;;;;;;4.73;4.23;;;;;;;;;;6070905;23;20180;-81
2024/03/18 03:30:03;;;;;;;4.67;4.13;;;;;;;;;;6046793;23;20168;-80
2024/03/18 03:32:29;;;;;;;5.13;3.97;;;;;;;;;;6046931;23;20243;-82
2024/03/18 03:34:55;;;;;;;5.60;4.80;;;;;;;;;;6023916;23;20218;-79
2024/03/18 03:37:21;;;;;;;6.17;5.17;;;;;;;;;;6048837;23;20224;-79
2024/03/18 03:39:47;;;;;;;7.77;5.47;;;;;;;;;;6048700;23;20184;-80
2024/03/18 03:42:14;;;;;;;6.83;5.63;;;;;;;;;;6072570;23;20196;-81
2024/03/18 03:44:39;;;;;;;7.03;5.43;;;;;;;;;;6072458;23;20619;-83
2024/03/18 03:47:06;;;;;;;6.17;5.57;;;;;;;;;;6072706;23;20172;-80
2024/03/18 03:49:32;;;;;;;5.90;5.37;;;;;;;;;;6048835;23;20272;-79
2024/03/18 03:51:58;;;;;;;7.37;5.80;;;;;;;;;;6024913;23;20175;-79
2024/03/18 03:54:25;;;;;;;7.50;5.90;;;;;;;;;;6048434;23;20173;-79
2024/03/18 03:56:51;;;;;;;7.47;6.43;;;;;;;;;;6025020;23;20251;-80
2024/03/18 03:59:17;;;;;;;11.30;9.00;;;;;;;;;;6024606;23;20275;-80
2024/03/18 04:01:44;;;;;;;9.90;8.77;;;;;;;;;;6048602;23;20187;-79
2024/03/18 04:04:10;;;;;;;9.47;8.20;;;;;;;;;;6048289;23;20231;-80
2024/03/18 04:06:36;;;;;;;8.23;7.53;;;;;;;;;;6048424;23;20166;-79
2024/03/18 04:09:02;;;;;;;8.67;7.77;;;;;;;;;;6048647;23;20166;-79
2024/03/18 04:11:28;;;;;;;8.80;7.90;;;;;;;;;;6024774;23;20172;-79
2024/03/18 04:13:54;;;;;;;8.47;7.30;;;;;;;;;;6071798;23;20172;-79
2024/03/18 04:16:20;;;;;;;8.33;7.53;;;;;;;;;;6048177;23;20488;-80
2024/03/18 04:18:46;;;;;;;7.80;6.93;;;;;;;;;;6047895;23;20183;-80
2024/03/18 04:21:12;;;;;;;8.23;7.17;;;;;;;;;;6072098;23;20166;-80
2024/03/18 04:23:38;;;;;;;8.77;7.87;;;;;;;;;;6072188;23;20258;-78
2024/03/18 04:26:06;;;;;;;8.57;7.57;;;;;;;;;;6072068;23;20219;-79
2024/03/18 04:28:33;;;;;;;10.93;7.97;;;;;;;;;;6071637;23;20211;-79
2024/03/18 04:31:00;;;;;;;10.40;7.80;;;;;;;;;;6078107;23;20198;-79
2024/03/18 04:33:26;;;;;;;7.93;7.13;;;;;;;;;;6096283;23;20192;-80
2024/03/18 04:35:52;;;;;;;7.40;6.67;;;;;;;;;;6048124;23;20647;-79
2024/03/18 04:38:18;;;;;;;7.67;6.93;;;;;;;;;;6096290;23;20171;-80
2024/03/18 04:40:44;;;;;;;7.10;6.30;;;;;;;;;;6096165;23;20184;-80
2024/03/18 04:43:09;;;;;;;6.93;6.23;;;;;;;;;;6095409;23;20257;-81
2024/03/18 04:45:35;;;;;;;8.30;6.50;;;;;;;;;;6095761;23;20173;-80
2024/03/18 04:48:02;;;;;;;7.63;6.83;;;;;;;;;;6095712;23;20174;-82
2024/03/18 04:50:28;;;;;;;7.30;6.50;;;;;;;;;;6119945;23;20243;-80
2024/03/18 04:52:56;;;;;;;7.57;6.77;;;;;;;;;;6096486;23;20615;-78
2024/03/18 04:55:22;;;;;;;7.50;6.47;;;;;;;;;;6072005;23;20184;-82
2024/03/18 04:57:52;;;;;;;7.50;6.73;;;;;;;;;;6096201;23;20168;-78
2024/03/18 05:00:18;;;;;;;7.10;6.40;;;;;;;;;;6119947;23;20279;-78
2024/03/18 05:02:45;;;;;;;8.23;7.30;;;;;;;;;;6095467;23;20176;-78
2024/03/18 05:05:12;;;;;;;6.53;5.93;;;;;;;;;;6095344;23;20620;-79
2024/03/18 05:07:38;;;;;;;7.20;6.50;;;;;;;;;;6095652;23;20161;-81
2024/03/18 05:10:05;;;;;;;6.97;6.17;;;;;;;;;;6071627;23;20176;-79
2024/03/18 05:12:31;;;;;;;6.83;6.13;;;;;;;;;;6095412;23;20212;-79
2024/03/18 05:14:57;;;;;;;8.10;6.27;;;;;;;;;;6094800;23;20169;-78
2024/03/18 05:17:24;;;;;;;8.00;6.47;;;;;;;;;;6095128;23;20166;-81
2024/03/18 05:19:50;;;;;;;7.80;6.47;;;;;;;;;;6095107;23;20653;-79
2024/03/18 05:22:16;;;;;;;9.57;7.17;;;;;;;;;;6094897;23;20164;-80
2024/03/18 05:24:45;;;;;;;7.87;6.73;;;;;;;;;;6093567;23;20167;-78
2024/03/18 05:27:11;;;;;;;7.00;6.30;;;;;;;;;;6093889;23;20170;-80
2024/03/18 05:29:37;;;;;;;8.93;6.70;;;;;;;;;;6095297;23;20714;-81
2024/03/18 05:32:08;;;;;;;8.67;7.00;;;;;;;;;;6094926;23;20197;-78
2024/03/18 05:34:34;;;;;;;7.37;6.67;;;;;;;;;;6094799;23;20188;-80
2024/03/18 05:37:01;;;;;;;9.93;7.00;;;;;;;;;;6118735;23;20168;-78
2024/03/18 05:39:27;;;;;;;7.90;7.10;;;;;;;;;;6069935;23;20196;-79
2024/03/18 05:41:54;;;;;;;8.60;6.93;;;;;;;;;;6095080;23;20225;-78
2024/03/18 05:44:20;;;;;;;7.83;7.03;;;;;;;;;;6047171;23;20195;-80
2024/03/18 05:46:46;;;;;;;7.73;6.93;;;;;;;;;;6095134;23;20236;-79
2024/03/18 05:49:11;;;;;;;9.03;7.63;;;;;;;;;;6095042;23;20168;-81
2024/03/18 05:51:37;;;;;;;7.27;6.50;;;;;;;;;;6093255;23;20178;-79
2024/03/18 05:54:04;;;;;;;7.77;7.07;;;;;;;;;;6117143;23;20172;-79
2024/03/18 05:56:30;;;;;;;7.57;6.87;;;;;;;;;;6092524;23;20172;-80
2024/03/18 05:58:57;;;;;;;8.40;6.87;;;;;;;;;;6092160;23;20659;-80
2024/03/18 06:01:22;;;;;;;8.00;7.20;;;;;;;;;;6068132;23;20172;-79
2024/03/18 06:03:48;;;;;;;7.60;6.80;;;;;;;;;;6090915;23;20172;-80
2024/03/18 06:06:14;;;;;;;9.03;7.50;;;;;;;;;;6092063;23;20255;-80
2024/03/18 06:08:41;;;;;;;8.97;7.77;;;;;;;;;;6094503;23;20233;-80
2024/03/18 06:11:07;;;;;;;9.50;7.03;;;;;;;;;;6094626;23;20210;-80
2024/03/18 06:13:33;;;;;;;7.63;6.90;;;;;;;;;;6070438;23;20164;-79
2024/03/18 06:16:00;;;;;;;9.57;7.50;;;;;;;;;;6094618;23;20165;-80
2024/03/18 06:18:26;;;;;;;8.17;7.37;;;;;;;;;;6094716;23;20203;-80
2024/03/18 06:20:53;;;;;;;9.77;7.27;;;;;;;;;;6094301;23;20192;-78
2024/03/18 06:23:26;;;;;;;8.47;7.20;;;;;;;;;;6118782;23;20188;-83
2024/03/18 06:25:58;;;;;;;9.40;8.47;;;;;;;;;;6094429;23;20232;-80
2024/03/18 06:28:24;;;;;;;8.90;7.90;;;;;;;;;;6094648;23;20202;-77
2024/03/18 06:30:51;;;;;;;10.03;9.13;;;;;;;;;;6069875;23;20216;-80
2024/03/18 06:33:18;;;;;;;11.73;10.53;;;;;;;;;;6118156;23;20168;-80
2024/03/18 06:35:45;;;;;;;11.70;10.50;;;;;;;;;;6094033;23;20164;-82
2024/03/18 06:38:13;;;;;;;9.70;8.70;;;;;;;;;;6093979;23;20164;-78
2024/03/18 06:40:39;;;;;;;8.93;8.20;;;;;;;;;;6070089;23;20224;-80
2024/03/18 06:43:06;;;;;;;8.90;8.00;;;;;;;;;;6070200;23;20210;-81
2024/03/18 06:45:33;;;;;;;8.70;7.80;;;;;;;;;;6069573;23;20237;-80
2024/03/18 06:48:00;;;;;;;9.47;8.40;;;;;;;;;;6094768;23;20181;-82
2024/03/18 06:50:27;;;;;;;11.07;9.20;;;;;;;;;;6070222;23;20173;-79
2024/03/18 06:52:53;;;;;;;9.83;8.57;;;;;;;;;;6070505;23;20252;-80
2024/03/18 06:55:19;;;;;;;9.73;8.43;;;;;;;;;;6094116;23;20164;-80
2024/03/18 06:57:46;;;;;;;10.07;9.07;;;;;;;;;;6094249;23;20169;-79
2024/03/18 07:00:13;;;;;;;9.90;8.90;;;;;;;;;;6070249;23;20758;-78
2024/03/18 07:02:38;;;;;;;11.80;9.43;;;;;;;;;;6095126;23;20191;-78
2024/03/18 07:05:05;;;;;;;10.47;8.80;;;;;;;;;;6070766;23;20636;-79
2024/03/18 07:07:31;;;;;;;12.17;9.87;;;;;;;;;;6070587;23;20711;-79
2024/03/18 07:09:56;;;;;;;12.33;10.13;;;;;;;;;;6096496;23;20168;-80
2024/03/18 07:12:22;;;;;;;11.70;10.50;;;;;;;;;;6096638;23;20180;-80
2024/03/18 07:14:48;;;;;;;10.90;9.63;;;;;;;;;;6096704;23;20165;-80
2024/03/18 07:17:14;;;;;;;10.53;9.47;;;;;;;;;;6096207;23;20615;-82
2024/03/18 07:19:40;;;;;;;12.70;10.20;;;;;;;;;;6096317;23;20188;-78
2024/03/18 07:22:06;;;;;;;10.60;9.50;;;;;;;;;;6096645;23;20164;-80
2024/03/18 07:24:32;;;;;;;11.27;9.30;;;;;;;;;;6096129;23;20165;-78
2024/03/18 07:26:58;;;;;;;10.77;9.33;;;;;;;;;;6120022;23;20169;-81
2024/03/18 07:29:24;;;;;;;10.40;9.10;;;;;;;;;;6072135;23;20255;-82
2024/03/18 07:31:56;;;;;;;11.43;9.13;;;;;;;;;;6100291;23;20215;-80
2024/03/18 07:34:23;;;;;;;10.87;9.47;;;;;;;;;;6076639;23;20212;-79
2024/03/18 07:36:50;;;;;;;11.50;10.23;;;;;;;;;;6076754;23;20179;-81
2024/03/18 07:39:16;;;;;;;10.97;9.83;;;;;;;;;;6076994;23;20190;-79
2024/03/18 07:41:42;;;;;;;11.30;9.20;;;;;;;;;;6101066;23;20166;-79
2024/03/18 07:44:08;;;;;;;11.40;9.27;;;;;;;;;;6076463;23;20173;-80
2024/03/18 07:46:33;;;;;;;9.70;8.53;;;;;;;;;;6076662;23;20302;-80
2024/03/18 07:49:00;;;;;;;8.77;7.57;;;;;;;;;;6077514;23;20231;-80
2024/03/18 07:51:26;;;;;;;9.20;8.30;;;;;;;;;;6101193;23;20687;-79
2024/03/18 07:53:52;;;;;;;9.50;8.43;;;;;;;;;;6100255;23;20163;-81
2024/03/18 07:56:18;;;;;;;10.67;8.87;;;;;;;;;;6100344;23;20159;-80
2024/03/18 07:58:44;;;;;;;10.47;8.87;;;;;;;;;;6100799;23;20199;-80
2024/03/18 08:01:11;;;;;;;13.43;9.30;;;;;;;;;;6076743;23;20199;-80
2024/03/18 08:03:38;;;;;;;10.67;9.00;;;;;;;;;;6100736;23;20163;-82
2024/03/18 08:06:08;;;;;;;9.73;8.70;;;;;;;;;;6100444;23;20238;-81
2024/03/18 08:08:34;;;;;;;11.63;9.40;;;;;;;;;;6100733;23;20172;-79
2024/03/18 08:11:00;;;;;;;11.03;8.37;;;;;;;;;;6076849;23;20176;-79
2024/03/18 08:13:26;;;;;;;11.93;7.80;;;;;;;;;;6076513;23;20259;-79
2024/03/18 08:15:52;;;;;;;10.43;6.83;;;;;;;;;;6076226;23;20172;-82
2024/03/18 08:18:18;;;;;;;9.50;7.30;;;;;;;;;;6076785;23;20633;-79
2024/03/18 08:20:44;;;;;;;10.47;6.83;;;;;;;;;;6076540;23;20495;-81
2024/03/18 08:23:10;;;;;;;8.30;7.07;;;;;;;;;;6076035;23;20737;-78
2024/03/18 08:25:36;;;;;;;9.73;6.80;;;;;;;;;;6052590;23;20179;-79
2024/03/18 08:28:02;;;;;;;9.63;6.90;;;;;;;;;;6076209;23;20171;-80
2024/03/18 08:30:28;;;;;;;9.30;7.00;;;;;;;;;;6076212;23;20187;-81
2024/03/18 08:32:53;;;;;;;10.00;7.37;;;;;;;;;;6100487;23;20171;-80
2024/03/18 08:35:19;;;;;;;10.70;7.67;;;;;;;;;;6075770;23;20714;-82
2024/03/18 08:37:45;;;;;;;8.33;6.47;;;;;;;;;;6073317;23;20183;-79
2024/03/18 08:40:13;;;;;;;9.93;7.77;;;;;;;;;;6097708;23;20192;-81
2024/03/18 08:42:39;;;;;;;12.90;8.30;;;;;;;;;;6075584;23;20172;-78
2024/03/18 08:45:06;;;;;;;13.47;9.23;;;;;;;;;;6099281;23;20170;-82
2024/03/18 08:47:32;;;;;;;12.67;9.10;;;;;;;;;;6075372;23;20168;-80
2024/03/18 08:49:57;;;;;;;11.03;7.70;;;;;;;;;;6075256;23;20502;-83
2024/03/18 08:52:25;;;;;;;12.07;8.20;;;;;;;;;;6099973;23;20167;-79
2024/03/18 08:54:51;;;;;;;8.87;7.10;;;;;;;;;;6099883;23;20174;-82
2024/03/18 08:57:18;;;;;;;12.60;7.57;;;;;;;;;;6075547;23;20179;-80
2024/03/18 08:59:44;;;;;;;10.87;8.00;;;;;;;;;;6099173;23;20195;-81
2024/03/18 09:02:10;;;;;;;9.73;7.67;;;;;;;;;;6099310;23;20167;-79
2024/03/18 09:04:36;;;;;;;9.10;7.83;;;;;;;;;;6075882;23;20166;-78
2024/03/18 09:07:01;;;;;;;9.10;7.70;;;;;;;;;;6099566;23;20519;-81
2024/03/18 09:09:28;;;;;;;10.40;7.97;;;;;;;;;;6099795;23;20170;-79
2024/03/18 09:11:54;;;;;;;10.97;7.57;;;;;;;;;;6098441;23;20170;-80
2024/03/18 09:14:20;;;;;;;14.37;7.33;;;;;;;;;;6095202;23;20175;-80
2024/03/18 09:16:45;;;;;;;8.57;6.93;;;;;;;;;;6069848;23;20182;-81
2024/03/18 09:19:11;;;;;;;9.50;6.23;;;;;;;;;;6048032;23;20171;-80
2024/03/18 09:21:37;;;;;;;8.90;6.13;;;;;;;;;;6097979;23;20170;-81
2024/03/18 09:24:03;;;;;;;9.27;6.23;;;;;;;;;;6099429;23;20219;-78
2024/03/18 09:26:30;;;;;;;7.73;5.90;;;;;;;;;;6075305;23;20159;-80
2024/03/18 09:28:56;;;;;;;9.97;5.40;;;;;;;;;;6098934;23;20179;-78
2024/03/18 09:31:22;;;;;;;8.93;5.80;;;;;;;;;;6092638;23;20271;-80
2024/03/18 09:33:49;;;;;;;7.17;5.60;;;;;;;;;;6094057;23;20180;-78
2024/03/18 09:36:15;;;;;;;9.57;5.77;;;;;;;;;;6093295;23;20172;-79
2024/03/18 09:38:41;;;;;;;9.10;5.67;;;;;;;;;;6118500;23;20164;-82
2024/03/18 09:41:07;;;;;;;7.03;5.00;;;;;;;;;;6094329;23;20659;-80
2024/03/18 09:43:33;;;;;;;10.60;6.20;;;;;;;;;;6093659;23;20611;-78
2024/03/18 09:46:03;;;;;;;7.30;5.87;;;;;;;;;;6091312;23;20165;-80
2024/03/18 09:48:31;;;;;;;8.07;5.90;;;;;;;;;;6067795;23;20619;-82
2024/03/18 09:51:02;;;;;;;10.57;5.67;;;;;;;;;;6093609;23;20171;-80
2024/03/18 09:53:30;;;;;;;6.00;4.90;;;;;;;;;;6093534;23;20624;-79
2024/03/18 09:55:56;;;;;;;7.43;4.70;;;;;;;;;;6069318;23;20165;-79
2024/03/18 09:58:22;;;;;;;8.60;4.73;;;;;;;;;;6093356;23;20168;-80
2024/03/18 10:00:48;;;;;;;9.77;5.33;;;;;;;;;;6117718;23;20706;-79
2024/03/18 10:03:16;;;;;;;9.00;5.37;;;;;;;;;;6069863;23;20164;-77
2024/03/18 10:05:42;;;;;;;8.73;5.30;;;;;;;;;;6069702;23;20164;-81
2024/03/18 10:08:12;;;;;;;7.60;5.47;;;;;;;;;;6045428;23;20175;-78
2024/03/18 10:10:38;;;;;;;8.17;5.70;;;;;;;;;;6069676;23;20619;-79
2024/03/18 10:13:06;;;;;;;9.73;5.23;;;;;;;;;;6093546;23;20643;-78
2024/03/18 10:15:32;;;;;;;8.03;5.37;;;;;;;;;;6046398;23;20216;-79
2024/03/18 10:17:58;;;;;;;8.00;5.90;;;;;;;;;;6069826;23;20230;-80
2024/03/18 10:20:24;;;;;;;8.50;5.70;;;;;;;;;;6093315;23;20192;-77
2024/03/18 10:22:53;;;;;;;8.30;5.50;;;;;;;;;;6093501;23;20168;-79
2024/03/18 10:25:21;;;;;;;9.63;5.90;;;;;;;;;;6069479;23;20389;-78
2024/03/18 10:27:48;;;;;;;8.27;5.70;;;;;;;;;;6094143;23;20165;-78
2024/03/18 10:30:14;;;;;;;9.43;5.97;;;;;;;;;;6119879;23;20176;-79
2024/03/18 10:32:43;;;;;;;10.20;6.00;;;;;;;;;;6075026;23;20172;-79
2024/03/18 10:35:20;;;;;;;9.33;5.77;;;;;;;;;;6074971;23;20273;-79
2024/03/18 10:38:01;;;;;;;10.43;6.00;;;;;;;;;;6098834;23;20190;-78
2024/03/18 10:40:38;;;;;;;8.00;6.27;;;;;;;;;;6096748;23;20231;-78
2024/03/18 10:43:06;;;;;;;7.67;5.57;;;;;;;;;;6098407;23;20205;-79
2024/03/18 10:45:33;;;;;;;7.53;6.03;;;;;;;;;;6101016;23;20690;-78
2024/03/18 10:48:06;;;;;;;8.93;6.17;;;;;;;;;;6100661;23;20171;-79
2024/03/18 10:50:33;;;;;;;8.43;5.67;;;;;;;;;;6052772;23;20172;-81
2024/03/18 10:52:59;;;;;;;7.90;5.57;;;;;;;;;;6052317;23;20226;-78
2024/03/18 10:55:29;;;;;;;8.57;5.93;;;;;;;;;;6100350;23;20203;-79
2024/03/18 10:57:56;;;;;;;11.53;6.37;;;;;;;;;;6100872;23;20178;-81
2024/03/18 11:00:22;;;;;;;8.90;5.73;;;;;;;;;;6100572;23;20218;-80
2024/03/18 11:02:53;;;;;;;10.17;6.60;;;;;;;;;;6076699;23;20171;-78
2024/03/18 11:05:20;;;;;;;8.57;6.13;;;;;;;;;;6076137;23;20190;-79
2024/03/18 11:07:46;;;;;;;9.13;5.90;;;;;;;;;;6076059;23;20199;-79
2024/03/18 11:10:12;;;;;;;8.20;5.77;;;;;;;;;;6100139;23;20170;-78
2024/03/18 11:12:38;;;;;;;6.67;5.60;;;;;;;;;;6100061;23;20160;-78
2024/03/18 11:15:05;;;;;;;7.47;6.10;;;;;;;;;;6100283;23;20168;-78
2024/03/18 11:17:31;;;;;;;7.50;6.20;;;;;;;;;;6075947;23;20218;-78
2024/03/18 11:19:57;;;;;;;8.57;6.00;;;;;;;;;;6051668;23;20318;-81
2024/03/18 11:22:23;;;;;;;8.00;6.00;;;;;;;;;;6075855;23;20213;-79
2024/03/18 11:24:54;;;;;;;8.17;6.23;;;;;;;;;;6099791;23;20614;-78
2024/03/18 11:27:20;;;;;;;6.93;5.53;;;;;;;;;;6051130;23;20175;-79
2024/03/18 11:29:51;;;;;;;6.90;6.17;;;;;;;;;;6075137;23;20187;-82
2024/03/18 11:32:18;;;;;;;10.37;6.20;;;;;;;;;;6098649;23;20198;-80
2024/03/18 11:34:54;;;;;;;8.63;6.10;;;;;;;;;;6098988;23;20188;-78
2024/03/18 11:37:20;;;;;;;7.60;6.70;;;;;;;;;;6075027;23;20152;-78
2024/03/18 11:39:47;;;;;;;8.33;6.40;;;;;;;;;;6074811;23;20650;-78
2024/03/18 11:42:13;;;;;;;10.63;6.50;;;;;;;;;;6074825;23;20181;-79
2024/03/18 11:44:46;;;;;;;8.90;6.67;;;;;;;;;;6075274;23;20686;-79
2024/03/18 11:47:12;;;;;;;10.27;6.33;;;;;;;;;;6099113;23;20149;-80
2024/03/18 11:49:38;;;;;;;7.50;6.30;;;;;;;;;;6075196;23;20169;-80
2024/03/18 11:52:04;;;;;;;9.07;6.70;;;;;;;;;;6075276;23;20558;-79
2024/03/18 11:54:30;;;;;;;7.90;6.60;;;;;;;;;;6074724;23;20173;-79
2024/03/18 11:57:02;;;;;;;10.63;6.60;;;;;;;;;;6099381;23;20262;-79
2024/03/18 11:59:30;;;;;;;11.10;6.97;;;;;;;;;;6099918;23;20172;-79
2024/03/18 12:01:58;;;;;;;8.30;6.23;;;;;;;;;;6099078;23;20171;-78
2024/03/18 12:04:24;;;;;;;9.43;6.33;;;;;;;;;;6075390;23;20292;-79
2024/03/18 12:06:50;;;;;;;9.43;6.23;;;;;;;;;;6099437;23;20166;-77
2024/03/18 12:09:17;;;;;;;9.07;6.50;;;;;;;;;;6075352;23;20179;-79
2024/03/18 12:11:43;;;;;;;8.13;6.43;;;;;;;;;;6075112;23;20165;-78
2024/03/18 12:14:09;;;;;;;9.10;6.90;;;;;;;;;;6075355;23;20175;-79
2024/03/18 12:16:36;;;;;;;10.20;6.87;;;;;;;;;;6074483;23;20182;-80
2024/03/18 12:19:07;;;;;;;8.63;6.83;;;;;;;;;;6074804;23;20167;-80
2024/03/18 12:21:39;;;;;;;9.33;7.03;;;;;;;;;;6098712;23;20192;-78
2024/03/18 12:29:35;;;;;;;9.40;6.63;;;;;;;;;;6098601;23;20169;-83
2024/03/18 12:32:03;;;;;;;7.20;6.40;;;;;;;;;;6069528;23;20228;-79
2024/03/18 12:34:29;;;;;;;7.63;5.90;;;;;;;;;;6094289;23;20215;-78
2024/03/18 12:36:59;;;;;;;8.00;6.20;;;;;;;;;;6094224;23;20184;-78
2024/03/18 12:39:29;;;;;;;6.87;6.17;;;;;;;;;;6069979;23;20192;-80
2024/03/18 12:42:02;;;;;;;7.87;6.60;;;;;;;;;;6070243;23;20189;-77
2024/03/18 12:44:28;;;;;;;7.97;6.67;;;;;;;;;;6093826;23;20176;-78
2024/03/18 12:46:54;;;;;;;7.67;6.17;;;;;;;;;;6069455;23;20267;-79
2024/03/18 12:49:21;;;;;;;7.77;6.27;;;;;;;;;;6069694;23;20243;-78
2024/03/18 12:51:47;;;;;;;7.80;6.50;;;;;;;;;;6069489;23;20247;-78
2024/03/18 12:54:13;;;;;;;8.43;6.07;;;;;;;;;;6045742;23;20413;-80
2024/03/18 12:56:39;;;;;;;7.97;6.50;;;;;;;;;;6093560;23;20188;-80
2024/03/18 12:59:07;;;;;;;9.43;6.37;;;;;;;;;;6117466;23;20200;-80
2024/03/18 13:01:33;;;;;;;8.83;6.33;;;;;;;;;;6069084;23;20206;-78
2024/03/18 13:03:59;;;;;;;8.03;6.57;;;;;;;;;;6069423;23;20174;-80
2024/03/18 13:06:25;;;;;;;6.93;6.20;;;;;;;;;;6092975;23;20162;-78
2024/03/18 13:08:51;;;;;;;7.93;6.17;;;;;;;;;;6092287;23;20243;-80
2024/03/18 13:11:17;;;;;;;7.40;6.47;;;;;;;;;;6093046;23;20248;-80
2024/03/18 13:13:43;;;;;;;9.07;6.70;;;;;;;;;;6117727;23;20192;-78
2024/03/18 13:16:10;;;;;;;7.63;6.43;;;;;;;;;;6093513;23;20188;-81
2024/03/18 13:18:38;;;;;;;8.27;5.80;;;;;;;;;;6093344;23;20168;-81
2024/03/18 13:21:04;;;;;;;7.57;6.57;;;;;;;;;;6093527;23;20196;-80
2024/03/18 13:23:32;;;;;;;7.77;6.43;;;;;;;;;;6093373;23;20170;-79
2024/03/18 13:26:00;;;;;;;9.27;6.50;;;;;;;;;;6093180;23;20235;-79
2024/03/18 13:28:30;;;;;;;8.57;6.00;;;;;;;;;;6092636;23;20164;-79
2024/03/18 13:30:56;;;;;;;8.97;6.00;;;;;;;;;;6092521;23;20190;-79
2024/03/18 13:33:22;;;;;;;7.10;6.37;;;;;;;;;;6093268;23;20236;-81
2024/03/18 13:35:50;;;;;;;8.27;6.43;;;;;;;;;;6092752;23;20614;-80
2024/03/18 13:38:16;;;;;;;7.97;6.20;;;;;;;;;;6093255;23;20240;-79
2024/03/18 13:40:42;;;;;;;8.20;6.53;;;;;;;;;;6093216;23;20192;-79
2024/03/18 13:43:13;;;;;;;8.30;6.73;;;;;;;;;;6093316;23;20543;-78
2024/03/18 13:45:39;;;;;;;11.20;7.10;;;;;;;;;;6093670;23;20608;-81
2024/03/18 13:48:06;;;;;;;7.60;6.13;;;;;;;;;;6069473;23;20616;-80
2024/03/18 13:50:33;;;;;;;8.53;6.20;;;;;;;;;;6093272;23;20164;-79
2024/03/18 13:52:59;;;;;;;8.97;6.80;;;;;;;;;;6068598;23;20170;-81
2024/03/18 13:55:25;;;;;;;9.50;6.50;;;;;;;;;;6117344;23;20196;-79
2024/03/18 13:57:53;;;;;;;8.63;6.27;;;;;;;;;;6092362;23;20207;-79
2024/03/18 14:00:21;;;;;;;8.00;6.60;;;;;;;;;;6092883;23;20324;-78
2024/03/18 14:02:51;;;;;;;8.73;6.90;;;;;;;;;;6045015;23;20208;-81
2024/03/18 14:05:17;;;;;;;8.30;6.90;;;;;;;;;;6069082;23;20763;-79
2024/03/18 14:07:46;;;;;;;9.60;7.07;;;;;;;;;;6092471;23;20215;-79
2024/03/18 14:10:12;;;;;;;10.07;6.97;;;;;;;;;;6068834;23;20173;-80
2024/03/18 14:12:41;;;;;;;9.07;7.07;;;;;;;;;;6115994;23;20172;-77
2024/03/18 14:15:10;;;;;;;10.77;7.27;;;;;;;;;;6089499;23;20164;-73
2024/03/18 14:17:40;;;;;;;10.30;7.27;;;;;;;;;;6087652;23;20168;-75
2024/03/18 14:20:08;;;;;;;8.37;7.10;;;;;;;;;;6089394;23;20187;-74
2024/03/18 14:22:38;;;;;;;9.50;6.63;;;;;;;;;;6091467;23;20196;-75
2024/03/18 14:25:13;;;;;;;6.97;6.23;;;;;;;;;;6091944;23;20223;-76
2024/03/18 14:27:39;;;;;;;10.80;6.53;;;;;;;;;;6113476;23;20167;-74
2024/03/18 14:30:06;;;;;;;8.97;6.43;;;;;;;;;;6090346;23;20207;-76
2024/03/18 14:32:32;;;;;;;7.73;6.13;;;;;;;;;;6096826;23;20167;-74
2024/03/18 14:34:59;;;;;;;8.53;6.70;;;;;;;;;;6097243;23;20202;-74
2024/03/18 14:37:25;;;;;;;9.70;6.80;;;;;;;;;;6097277;23;20289;-73
2024/03/18 14:39:51;;;;;;;7.80;6.60;;;;;;;;;;6096659;23;20234;-76
2024/03/18 14:42:17;;;;;;;7.77;6.80;;;;;;;;;;6096712;23;20172;-76
2024/03/18 14:44:43;;;;;;;8.63;7.10;;;;;;;;;;6095904;23;20191;-78